Time;durP1;ratioP1;P1;durP2;ratioP2;P2;SDS_P1;SDS_P2;PMS_P1;PMS_P2;Temp;Humidity;BMP_temperature;BMP_pressure;BME280_temperature;BME280_humidity;BME280_pressure;Samples;Min_cycle;Max_cycle;Signal;HPM_P1;HPM_P2
2021/05/11 00:02:03;;;;;;;5.30;2.17;;;13.10;88.40;;;;;;3566846;40;20033;-81
2021/05/11 00:04:29;;;;;;;8.45;3.25;;;13.10;84.80;;;;;;3566026;40;20060;-80
2021/05/11 00:06:55;;;;;;;7.65;2.28;;;13.20;86.20;;;;;;3549373;40;20041;-80
2021/05/11 00:09:21;;;;;;;8.90;3.10;;;13.20;86.70;;;;;;3566117;40;20053;-80
2021/05/11 00:11:47;;;;;;;6.75;2.20;;;13.20;82.80;;;;;;3566782;40;20038;-80
2021/05/11 00:14:14;;;;;;;8.13;2.83;;;13.20;85.30;;;;;;3566636;40;20065;-81
2021/05/11 00:16:40;;;;;;;7.20;3.50;;;13.30;82.70;;;;;;3566800;40;20038;-81
2021/05/11 00:19:11;;;;;;;7.35;3.58;;;13.30;88.50;;;;;;3566162;40;20045;-80
2021/05/11 00:21:37;;;;;;;7.32;3.58;;;13.40;84.00;;;;;;3565753;40;20045;-79
2021/05/11 00:24:04;;;;;;;7.95;2.63;;;13.40;84.00;;;;;;3565824;40;20239;-80
2021/05/11 00:26:29;;;;;;;3.40;2.05;;;13.40;83.90;;;;;;3566828;40;20047;-80
2021/05/11 00:28:56;;;;;;;5.85;2.90;;;13.40;86.00;;;;;;3565797;40;20041;-80
2021/05/11 00:31:22;;;;;;;6.15;3.80;;;13.40;84.70;;;;;;3566971;40;20044;-81
2021/05/11 00:33:48;;;;;;;9.18;4.00;;;13.40;89.50;;;;;;3566109;40;20053;-80
2021/05/11 00:36:13;;;;;;;5.50;3.20;;;13.40;85.10;;;;;;3547933;40;20045;-79
2021/05/11 00:38:39;;;;;;;5.47;2.38;;;13.40;85.80;;;;;;3548115;40;20060;-81
2021/05/11 00:41:06;;;;;;;8.18;3.35;;;13.40;82.20;;;;;;3565691;40;20041;-81
2021/05/11 00:43:31;;;;;;;6.53;2.40;;;13.40;85.80;;;;;;3565879;40;20048;-80
2021/05/11 00:45:59;;;;;;;5.53;2.45;;;13.40;83.10;;;;;;3566773;40;20660;-80
2021/05/11 00:48:24;;;;;;;4.68;2.65;;;13.40;83.30;;;;;;3566622;40;20067;-81
2021/05/11 00:50:50;;;;;;;6.85;3.13;;;13.40;83.50;;;;;;3565581;40;20049;-81
2021/05/11 00:53:16;;;;;;;6.35;3.40;;;13.30;86.30;;;;;;3565450;40;20052;-81
2021/05/11 00:55:44;;;;;;;7.93;2.20;;;13.30;86.70;;;;;;3556243;40;20042;-81
2021/05/11 00:58:11;;;;;;;4.88;2.00;;;13.30;86.50;;;;;;3564102;40;20082;-80
2021/05/11 01:00:37;;;;;;;7.80;2.70;;;13.30;85.80;;;;;;3565604;40;20041;-81
2021/05/11 01:03:03;;;;;;;5.90;3.72;;;13.20;86.90;;;;;;3565457;40;20368;-81
2021/05/11 01:05:29;;;;;;;7.40;3.95;;;13.20;85.60;;;;;;3566663;40;20067;-81
2021/05/11 01:07:55;;;;;;;11.48;4.47;;;13.20;85.40;;;;;;3565397;40;20049;-80
2021/05/11 01:10:21;;;;;;;6.20;3.30;;;13.20;85.00;;;;;;3566405;40;20057;-81
2021/05/11 01:12:46;;;;;;;10.07;3.20;;;13.20;86.90;;;;;;3566731;40;20635;-80
2021/05/11 01:15:13;;;;;;;4.00;2.30;;;13.20;87.50;;;;;;3565178;40;20135;-80
2021/05/11 01:17:40;;;;;;;7.15;2.13;;;13.10;86.80;;;;;;3566190;40;20056;-79
2021/05/11 01:20:08;;;;;;;9.30;3.25;;;13.10;86.50;;;;;;3557280;40;20138;-80
2021/05/11 01:22:53;;;;;;;6.43;3.05;;;13.10;86.80;;;;;;3565562;40;20038;-80
2021/05/11 01:25:28;;;;;;;6.68;3.58;;;13.10;87.10;;;;;;3557750;23;20039;-80
2021/05/11 02:17:57;;;;;;;6.10;2.83;;;13.00;90.20;;;;;;3537991;40;20066;-81
2021/05/11 02:25:20;;;;;;;5.97;2.97;;;13.00;90.60;;;;;;3536747;40;20144;-80
2021/05/11 02:27:46;;;;;;;9.32;5.00;;;13.10;88.30;;;;;;3537015;40;20420;-81
2021/05/11 02:30:14;;;;;;;9.27;4.82;;;13.10;86.50;;;;;;3536862;40;20128;-81
2021/05/11 02:32:42;;;;;;;8.98;3.90;;;13.10;86.70;;;;;;3537253;40;20070;-79
2021/05/11 02:35:12;;;;;;;8.15;4.15;;;13.10;87.30;;;;;;3536715;40;20066;-79
2021/05/11 02:37:38;;;;;;;5.68;3.42;;;13.10;90.30;;;;;;3537973;40;20041;-79
2021/05/11 02:40:07;;;;;;;10.38;3.97;;;13.10;90.10;;;;;;3537563;40;20070;-78
2021/05/11 02:42:33;;;;;;;9.80;4.65;;;13.20;88.00;;;;;;3537649;40;20247;-78
2021/05/11 02:45:00;;;;;;;8.82;3.75;;;13.20;87.80;;;;;;3528125;40;20046;-77
2021/05/11 02:47:26;;;;;;;8.25;4.13;;;13.20;86.40;;;;;;3536932;40;20062;-78
2021/05/11 02:49:51;;;;;;;6.60;3.03;;;13.20;89.00;;;;;;3536643;40;20096;-77
2021/05/11 02:52:19;;;;;;;6.97;3.13;;;13.20;90.00;;;;;;3536684;40;20038;-78
2021/05/11 02:54:45;;;;;;;8.90;2.55;;;13.20;91.10;;;;;;3537216;40;20038;-78
2021/05/11 02:57:11;;;;;;;4.45;1.63;;;13.10;90.80;;;;;;3536182;40;20043;-76
2021/05/11 02:59:37;;;;;;;6.72;1.70;;;13.10;88.50;;;;;;3537370;40;20054;-75
2021/05/11 03:02:04;;;;;;;2.95;1.13;;;13.10;89.60;;;;;;3537517;40;20050;-75
2021/05/11 03:04:30;;;;;;;3.20;1.17;;;13.00;88.00;;;;;;3537577;40;20136;-75
2021/05/11 03:06:57;;;;;;;5.32;1.02;;;13.00;87.80;;;;;;3528231;40;20451;-76
2021/05/11 03:09:24;;;;;;;3.33;1.05;;;12.90;89.50;;;;;;3537736;40;20354;-77
2021/05/11 03:11:51;;;;;;;4.22;0.80;;;12.90;90.50;;;;;;3537307;40;20098;-76
2021/05/11 03:14:17;;;;;;;2.10;0.82;;;12.80;90.30;;;;;;3536357;40;20245;-76
2021/05/11 03:16:43;;;;;;;2.60;1.20;;;12.80;89.70;;;;;;3537457;40;20349;-77
2021/05/11 03:19:09;;;;;;;3.55;1.15;;;12.80;90.40;;;;;;3537272;40;20276;-77
2021/05/11 03:21:35;;;;;;;2.55;0.70;;;12.70;89.80;;;;;;3537375;40;20035;-77
2021/05/11 03:24:02;;;;;;;2.78;1.02;;;12.70;90.20;;;;;;3536854;40;20395;-77
2021/05/11 03:26:27;;;;;;;3.28;1.02;;;12.70;90.20;;;;;;3537132;40;20027;-78
2021/05/11 03:28:53;;;;;;;1.88;0.50;;;12.70;90.20;;;;;;3536314;40;20054;-78
2021/05/11 03:31:20;;;;;;;1.83;1.27;;;12.70;89.50;;;;;;3535981;40;20245;-79
2021/05/11 03:33:46;;;;;;;4.97;1.67;;;12.70;89.90;;;;;;3537143;40;20041;-78
2021/05/11 03:36:20;;;;;;;6.45;2.80;;;12.70;90.80;;;;;;3537346;40;20086;-79
2021/05/11 03:38:50;;;;;;;3.80;2.10;;;12.70;90.90;;;;;;3535950;40;20051;-78
2021/05/11 03:41:17;;;;;;;11.70;2.00;;;12.60;90.00;;;;;;3536123;40;20049;-78
2021/05/11 03:43:53;;;;;;;6.25;1.77;;;12.60;89.30;;;;;;3537508;40;20679;-79
2021/05/11 03:46:19;;;;;;;4.40;1.77;;;12.60;89.60;;;;;;3536926;40;20047;-78
2021/05/11 03:48:47;;;;;;;6.13;2.63;;;12.60;89.40;;;;;;3536192;40;20074;-79
2021/05/11 03:51:14;;;;;;;5.90;2.97;;;12.50;88.30;;;;;;3537059;40;20050;-78
2021/05/11 03:53:41;;;;;;;3.80;1.75;;;12.50;86.90;;;;;;3536321;40;20081;-81
2021/05/11 03:56:07;;;;;;;9.48;2.30;;;12.50;89.40;;;;;;3536927;40;20357;-80
2021/05/11 03:58:33;;;;;;;9.98;2.42;;;12.50;90.50;;;;;;3536510;40;20034;-78
2021/05/11 04:01:00;;;;;;;3.42;1.70;;;12.50;87.60;;;;;;3535970;40;20039;-79
2021/05/11 04:03:25;;;;;;;4.32;1.60;;;12.50;91.20;;;;;;3537144;40;20266;-81
2021/05/11 04:05:53;;;;;;;3.88;1.60;;;12.50;92.70;;;;;;3537168;40;20042;-79
2021/05/11 04:11:08;;;;;;;5.50;1.95;;;12.40;93.70;;;;;;3537283;40;20038;-80
2021/05/11 04:16:14;;;;;;;5.85;2.22;;;12.40;93.70;;;;;;3536980;40;20046;-80
2021/05/11 04:18:40;;;;;;;3.47;1.65;;;12.40;92.20;;;;;;3536167;40;20106;-79
2021/05/11 04:21:06;;;;;;;4.50;2.05;;;12.30;92.30;;;;;;3536021;40;20054;-80
2021/05/11 04:23:32;;;;;;;4.78;2.63;;;12.40;91.60;;;;;;3537178;40;20491;-79
2021/05/11 04:25:59;;;;;;;4.97;2.55;;;12.30;92.80;;;;;;3536766;40;20042;-79
2021/05/11 04:28:25;;;;;;;3.22;1.63;;;12.40;92.20;;;;;;3537079;40;20059;-80
2021/05/11 04:30:51;;;;;;;4.97;1.85;;;12.40;92.70;;;;;;3519836;40;20042;-80
2021/05/11 04:33:17;;;;;;;6.28;2.67;;;12.40;93.70;;;;;;3537316;40;20073;-80
2021/05/11 04:35:43;;;;;;;6.90;2.17;;;12.40;95.60;;;;;;3537019;40;20045;-79
2021/05/11 04:38:09;;;;;;;5.22;2.58;;;12.40;94.20;;;;;;3535874;40;20039;-80
2021/05/11 04:40:34;;;;;;;7.50;2.75;;;12.40;93.60;;;;;;3536110;40;20358;-80
2021/05/11 04:43:00;;;;;;;5.57;3.03;;;12.50;93.30;;;;;;3548631;40;20042;-80
2021/05/11 04:45:27;;;;;;;7.93;3.67;;;12.60;92.90;;;;;;3527704;40;20041;-79
2021/05/11 04:47:53;;;;;;;9.65;3.28;;;12.60;94.90;;;;;;3536922;40;20054;-80
2021/05/11 04:50:22;;;;;;;5.05;1.98;;;12.70;95.00;;;;;;3536762;40;20136;-79
2021/05/11 04:52:48;;;;;;;12.80;5.80;;;12.70;94.10;;;;;;3536784;40;20074;-80
2021/05/11 04:55:16;;;;;;;15.10;6.43;;;12.80;93.60;;;;;;3536819;40;20231;-81
2021/05/11 04:57:42;;;;;;;13.75;6.82;;;12.80;93.70;;;;;;3536757;40;20303;-77
2021/05/11 05:00:11;;;;;;;10.43;5.13;;;12.80;92.80;;;;;;3536497;40;20043;-80
2021/05/11 05:02:47;;;;;;;8.55;3.55;;;12.90;94.30;;;;;;3536649;40;20063;-79
2021/05/11 05:05:14;;;;;;;8.25;3.70;;;12.90;93.30;;;;;;3536465;40;20062;-80
2021/05/11 05:07:41;;;;;;;8.75;3.58;;;13.00;92.30;;;;;;3536007;40;20043;-81
2021/05/11 05:10:09;;;;;;;9.10;1.90;;;13.00;93.90;;;;;;3536657;40;20105;-77
2021/05/11 05:12:35;;;;;;;6.20;3.22;;;13.00;92.00;;;;;;3536739;40;20038;-77
2021/05/11 05:15:03;;;;;;;5.10;1.73;;;12.90;92.70;;;;;;3536335;40;20140;-77
2021/05/11 05:17:29;;;;;;;2.92;2.28;;;12.90;91.90;;;;;;3535772;40;20054;-76
2021/05/11 05:19:56;;;;;;;2.75;1.77;;;12.90;92.20;;;;;;3533665;40;20262;-77
2021/05/11 05:22:22;;;;;;;3.42;1.48;;;12.90;91.80;;;;;;3536590;40;20038;-76
2021/05/11 05:24:53;;;;;;;5.70;1.75;;;12.80;92.80;;;;;;3536892;40;20447;-77
2021/05/11 05:29:46;;;;;;;9.80;3.05;;;12.80;92.70;;;;;;3536601;40;20050;-75
2021/05/11 05:32:12;;;;;;;3.40;1.25;;;12.80;92.40;;;;;;3536198;40;20043;-79
2021/05/11 05:34:38;;;;;;;6.30;1.98;;;12.80;92.40;;;;;;3536602;40;20061;-78
2021/05/11 05:37:04;;;;;;;3.38;1.23;;;12.80;92.50;;;;;;3535276;40;20062;-79
2021/05/11 05:39:40;;;;;;;3.20;0.90;;;12.80;91.40;;;;;;3535012;40;20054;-77
2021/05/11 05:42:06;;;;;;;2.47;1.50;;;12.80;91.30;;;;;;3535973;40;20049;-78
2021/05/11 05:44:32;;;;;;;4.75;1.02;;;12.80;92.70;;;;;;3536392;40;20318;-81
2021/05/11 05:46:58;;;;;;;5.13;1.33;;;12.80;91.10;;;;;;3536109;40;20066;-76
2021/05/11 05:49:29;;;;;;;10.25;2.78;;;12.80;92.40;;;;;;3535499;40;20624;-80
2021/05/11 05:52:01;;;;;;;9.07;3.70;;;12.80;91.80;;;;;;3536056;40;20132;-77
2021/05/11 05:54:29;;;;;;;9.35;3.67;;;12.80;91.90;;;;;;3536325;40;20130;-80
2021/05/11 05:56:56;;;;;;;5.50;2.88;;;12.80;93.30;;;;;;3536146;40;20125;-79
2021/05/11 05:59:22;;;;;;;3.38;1.80;;;12.80;91.70;;;;;;3536555;40;20046;-78
2021/05/11 06:01:52;;;;;;;4.10;1.50;;;12.80;93.50;;;;;;3535464;40;20069;-82
2021/05/11 06:04:24;;;;;;;4.95;1.25;;;12.80;91.70;;;;;;3535369;40;20045;-80
2021/05/11 06:07:10;;;;;;;6.90;1.02;;;12.80;92.00;;;;;;3528515;40;20323;-79
2021/05/11 06:09:36;;;;;;;1.42;0.93;;;12.90;92.30;;;;;;3535323;40;20335;-80
2021/05/11 06:12:09;;;;;;;0.80;0.47;;;12.90;91.60;;;;;;3536358;40;20055;-79
2021/05/11 06:17:22;;;;;;;3.03;1.05;;;12.80;92.20;;;;;;3525395;40;20474;-78
2021/05/11 06:19:52;;;;;;;1.85;0.40;;;12.90;93.10;;;;;;3534109;40;20049;-84
2021/05/11 06:22:18;;;;;;;1.90;0.73;;;12.90;93.30;;;;;;3536100;40;20046;-78
2021/05/11 06:24:44;;;;;;;8.32;1.52;;;12.80;92.50;;;;;;3535322;40;20047;-79
2021/05/11 06:27:12;;;;;;;5.28;1.58;;;12.90;92.10;;;;;;3535818;40;20050;-79
2021/05/11 06:29:40;;;;;;;2.10;0.98;;;12.80;91.40;;;;;;3535112;40;20047;-79
2021/05/11 06:32:08;;;;;;;5.00;1.73;;;12.90;91.60;;;;;;3534996;40;20046;-78
2021/05/11 06:34:34;;;;;;;2.72;0.77;;;12.90;91.40;;;;;;3536296;40;20049;-78
2021/05/11 06:37:01;;;;;;;2.42;1.23;;;12.90;91.20;;;;;;3535171;40;20043;-78
2021/05/11 06:39:27;;;;;;;3.80;0.88;;;12.90;92.00;;;;;;3536317;40;20054;-77
2021/05/11 06:42:09;;;;;;;4.55;0.93;;;13.00;91.20;;;;;;3535979;40;20309;-79
2021/05/11 06:48:00;;;;;;;1.38;0.70;;;13.00;91.90;;;;;;3535470;40;20039;-77
2021/05/11 06:55:06;;;;;;;5.13;2.10;;;13.20;91.90;;;;;;3536661;40;20058;-77
2021/05/11 06:57:31;;;;;;;11.90;2.85;;;13.20;91.20;;;;;;3537413;40;20042;-77
2021/05/11 06:59:57;;;;;;;2.90;0.90;;;13.20;91.40;;;;;;3537013;40;20237;-77
2021/05/11 07:02:23;;;;;;;3.88;1.20;;;13.20;92.50;;;;;;3537345;40;20054;-77
2021/05/11 07:04:53;;;;;;;5.38;1.27;;;13.20;91.60;;;;;;3537489;40;20043;-76
2021/05/11 07:07:21;;;;;;;3.60;1.20;;;13.30;92.00;;;;;;3536411;40;20046;-77
2021/05/11 07:14:59;;;;;;;1.42;0.57;;;13.30;92.10;;;;;;3536428;40;20269;-77
2021/05/11 07:17:26;;;;;;;1.55;0.77;;;13.40;93.10;;;;;;3537160;40;20039;-78
2021/05/11 07:19:52;;;;;;;8.23;0.70;;;13.40;92.60;;;;;;3536284;40;20043;-77
2021/05/11 07:22:22;;;;;;;6.43;1.30;;;13.40;91.50;;;;;;3537176;40;20348;-78
2021/05/11 07:24:52;;;;;;;1.98;0.75;;;13.40;92.50;;;;;;3537373;40;20244;-77
2021/05/11 07:30:30;;;;;;;3.92;0.95;;;13.40;92.80;;;;;;3537218;40;20043;-76
2021/05/11 07:32:30;;;;;;;1.92;0.70;;;13.40;93.80;;;;;;3532309;40;20120;-77
2021/05/11 07:34:56;;;;;;;4.68;1.58;;;13.40;92.70;;;;;;3536946;40;20046;-77
2021/05/11 07:37:22;;;;;;;3.67;2.00;;;13.50;92.50;;;;;;3537192;40;20050;-77
2021/05/11 07:39:48;;;;;;;4.22;1.60;;;13.50;93.30;;;;;;3536342;40;20329;-77
2021/05/11 07:42:14;;;;;;;10.75;2.08;;;13.50;92.90;;;;;;3535948;40;20317;-80
2021/05/11 07:44:44;;;;;;;4.18;2.22;;;13.60;92.90;;;;;;3537202;40;20074;-78
2021/05/11 08:03:40;;;;;;;7.30;3.03;;;13.90;92.20;;;;;;3535380;40;20090;-81
2021/05/11 08:17:02;;;;;;;1.20;0.40;;;14.40;90.70;;;;;;3536810;40;20321;-79
2021/05/11 08:27:55;;;;;;;2.65;0.30;;;15.00;89.70;;;;;;3536648;40;20042;-79
2021/05/11 08:30:22;;;;;;;2.03;0.50;;;15.20;90.00;;;;;;3536912;40;20237;-83
2021/05/11 08:32:48;;;;;;;0.73;0.17;;;15.30;89.50;;;;;;3536189;40;20047;-81
2021/05/11 08:35:13;;;;;;;1.55;0.30;;;15.40;88.10;;;;;;3536662;40;20050;-80
2021/05/11 08:37:39;;;;;;;0.20;0.10;;;15.50;89.00;;;;;;3537027;40;20380;-79
2021/05/11 08:40:06;;;;;;;1.00;0.13;;;15.50;86.90;;;;;;3536521;40;20047;-79
2021/05/11 08:42:32;;;;;;;1.75;0.20;;;15.50;87.30;;;;;;3527859;40;20038;-81
2021/05/11 08:45:04;;;;;;;1.33;0.20;;;15.50;88.60;;;;;;3536611;40;20126;-82
2021/05/11 08:47:29;;;;;;;0.20;0.10;;;15.50;85.60;;;;;;3536117;40;20043;-81
2021/05/11 08:49:55;;;;;;;1.17;0.20;;;15.50;86.80;;;;;;3527512;40;20051;-80
2021/05/11 08:52:53;;;;;;;1.27;0.10;;;15.40;86.70;;;;;;3537372;40;20050;-81
2021/05/11 09:16:47;;;;;;;0.52;0.20;;;15.60;88.00;;;;;;3522470;40;20710;-81
2021/05/11 09:30:11;;;;;;;2.97;1.10;;;16.00;90.00;;;;;;3523141;40;20402;-83
2021/05/11 10:48:19;;;;;;;0.73;0.10;;;16.50;86.40;;;;;;3537410;40;20034;-82
2021/05/11 10:50:48;;;;;;;1.00;0.10;;;16.80;85.90;;;;;;3537796;40;20051;-81
2021/05/11 10:53:57;;;;;;;0.25;0.10;;;17.10;85.00;;;;;;3537548;40;20049;-81
2021/05/11 10:56:38;;;;;;;1.85;0.20;;;17.30;81.80;;;;;;3535933;40;20085;-81
2021/05/11 11:01:58;;;;;;;1.25;0.20;;;17.30;86.40;;;;;;3537677;40;20046;-81
2021/05/11 11:04:32;;;;;;;0.77;0.38;;;17.40;87.20;;;;;;3537789;40;20599;-81
2021/05/11 11:06:58;;;;;;;0.57;0.30;;;17.40;85.10;;;;;;3536443;40;20043;-81
2021/05/11 11:09:41;;;;;;;2.35;0.30;;;17.40;86.50;;;;;;3537554;40;20129;-81
2021/05/11 11:12:08;;;;;;;1.92;0.43;;;17.50;85.40;;;;;;3536251;40;20082;-80
2021/05/11 11:14:44;;;;;;;1.00;0.32;;;17.60;86.50;;;;;;3537245;40;20046;-80
2021/05/11 11:17:13;;;;;;;1.48;0.52;;;17.60;82.70;;;;;;3537124;40;20046;-81
2021/05/11 11:19:39;;;;;;;0.70;0.30;;;17.70;85.60;;;;;;3535402;40;20103;-81
2021/05/11 11:24:57;;;;;;;0.98;0.20;;;17.90;86.20;;;;;;3537444;40;20054;-82
2021/05/11 11:27:31;;;;;;;0.77;0.30;;;18.20;86.30;;;;;;3534831;40;20047;-82
2021/05/11 11:30:01;;;;;;;1.55;0.30;;;18.50;82.50;;;;;;3537516;40;20042;-81
2021/05/11 11:32:27;;;;;;;1.52;0.30;;;18.50;83.30;;;;;;3536676;40;20050;-81
2021/05/11 11:34:54;;;;;;;0.95;0.30;;;18.40;84.30;;;;;;3536759;40;20055;-80
2021/05/11 11:37:23;;;;;;;2.05;0.20;;;18.20;83.40;;;;;;3535982;40;20045;-81
2021/05/11 11:39:51;;;;;;;1.55;0.40;;;18.00;84.00;;;;;;3537228;40;20038;-81
2021/05/11 11:42:22;;;;;;;0.50;0.30;;;17.90;84.80;;;;;;3537073;40;20097;-81
2021/05/11 11:44:53;;;;;;;0.98;0.30;;;17.80;85.10;;;;;;3537280;40;20056;-81
2021/05/11 11:47:22;;;;;;;1.35;0.47;;;18.00;85.30;;;;;;3536881;40;20039;-81
2021/05/11 11:49:51;;;;;;;1.83;0.73;;;18.00;84.90;;;;;;3537507;40;20050;-81
2021/05/11 11:57:46;;;;;;;2.22;0.75;;;17.90;84.10;;;;;;3537134;40;20047;-80
2021/05/11 12:00:18;;;;;;;1.33;0.40;;;17.90;84.00;;;;;;3537120;40;20102;-80
2021/05/11 12:03:03;;;;;;;1.40;0.30;;;17.90;82.10;;;;;;3537249;40;20125;-79
2021/05/11 12:06:00;;;;;;;2.28;0.30;;;17.80;79.60;;;;;;3536966;40;20330;-80
2021/05/11 12:08:28;;;;;;;1.08;0.30;;;17.80;80.00;;;;;;3550081;40;20035;-79
2021/05/11 12:10:56;;;;;;;1.13;0.20;;;17.90;83.80;;;;;;3536109;40;20070;-80
2021/05/11 12:13:27;;;;;;;2.05;0.38;;;18.00;84.50;;;;;;3536818;40;20081;-81
2021/05/11 12:16:20;;;;;;;0.40;0.30;;;18.20;82.90;;;;;;3535004;40;20415;-79
2021/05/11 12:21:29;;;;;;;1.45;0.57;;;18.50;81.40;;;;;;3535952;40;20051;-79
2021/05/11 12:24:11;;;;;;;0.75;0.45;;;18.40;83.00;;;;;;3536573;40;20113;-79
2021/05/11 12:26:40;;;;;;;0.85;0.40;;;18.20;79.30;;;;;;3536010;40;20297;-80
2021/05/11 12:29:17;;;;;;;1.13;0.30;;;18.10;83.30;;;;;;3535955;40;20265;-80
2021/05/11 12:31:45;;;;;;;0.70;0.52;;;18.00;81.90;;;;;;3552230;40;20091;-79
2021/05/11 12:34:30;;;;;;;0.98;0.75;;;18.00;82.10;;;;;;3536785;40;20055;-80
2021/05/11 12:37:01;;;;;;;1.15;1.02;;;18.00;82.00;;;;;;3536662;40;20037;-79
2021/05/11 12:39:52;;;;;;;3.35;1.80;;;17.80;82.00;;;;;;3537117;40;20051;-79
2021/05/11 12:42:23;;;;;;;3.72;2.47;;;17.70;79.20;;;;;;3536731;40;20042;-80
2021/05/11 12:45:14;;;;;;;1.90;1.65;;;17.40;80.90;;;;;;3535975;40;20124;-79
2021/05/11 12:48:00;;;;;;;1.58;1.48;;;17.20;78.80;;;;;;3535815;40;20350;-80
2021/05/11 12:50:33;;;;;;;2.03;1.73;;;17.10;77.70;;;;;;3536885;40;20042;-79
2021/05/11 12:53:17;;;;;;;1.73;1.50;;;17.00;81.00;;;;;;3551500;40;20051;-79
2021/05/11 13:25:10;;;;;;;3.63;0.73;;;15.30;87.20;;;;;;3536301;40;20679;-80
2021/05/11 13:26:16;;;;;;;1.00;0.40;;;15.20;87.20;;;;;;3536229;40;20035;-78
2021/05/11 13:31:22;;;;;;;4.03;0.15;;;15.10;87.20;;;;;;3536077;40;20042;-80
2021/05/11 13:36:17;;;;;;;0.50;0.10;;;15.00;87.40;;;;;;3536492;40;20067;-78
2021/05/11 13:38:43;;;;;;;0.22;0.10;;;15.00;87.00;;;;;;3536482;40;20043;-80
2021/05/11 13:41:09;;;;;;;0.30;0.10;;;15.00;87.50;;;;;;3535354;40;20101;-79
2021/05/11 13:43:35;;;;;;;0.30;0.10;;;15.00;88.00;;;;;;3536721;40;20129;-79
2021/05/11 13:46:00;;;;;;;0.63;0.10;;;14.90;89.20;;;;;;3536312;40;20050;-79
2021/05/11 13:48:33;;;;;;;0.30;0.10;;;14.90;88.50;;;;;;3536871;40;20054;-81
2021/05/11 13:51:03;;;;;;;1.65;0.30;;;14.70;89.80;;;;;;3536337;40;20046;-80
2021/05/11 13:53:32;;;;;;;0.93;0.30;;;14.70;90.20;;;;;;3536032;40;20112;-78
2021/05/11 14:01:39;;;;;;;0.43;0.10;;;14.50;90.60;;;;;;3533745;40;20245;-79
2021/05/11 14:04:06;;;;;;;0.30;0.10;;;14.40;90.20;;;;;;3536271;40;20031;-79
2021/05/11 14:06:32;;;;;;;0.30;0.17;;;14.50;90.20;;;;;;3535572;40;20035;-79
2021/05/11 14:08:59;;;;;;;1.02;0.20;;;14.40;90.60;;;;;;3536209;40;20045;-79
2021/05/11 14:11:25;;;;;;;0.32;0.10;;;14.30;90.40;;;;;;3536590;40;20050;-79
2021/05/11 14:13:51;;;;;;;0.20;0.00;;;14.20;90.20;;;;;;3536590;40;20055;-79
2021/05/11 14:16:17;;;;;;;0.43;0.00;;;14.20;90.80;;;;;;3534795;40;20046;-78
2021/05/11 14:18:44;;;;;;;0.00;0.00;;;14.10;91.00;;;;;;3536430;40;20046;-80
2021/05/11 14:21:10;;;;;;;0.20;0.10;;;14.00;91.00;;;;;;3535740;40;20042;-79
2021/05/11 14:23:36;;;;;;;0.25;0.05;;;14.00;91.30;;;;;;3536248;40;20043;-81
2021/05/11 14:26:02;;;;;;;0.10;0.10;;;13.90;90.90;;;;;;3535064;40;20133;-80
2021/05/11 14:28:28;;;;;;;5.72;0.10;;;13.90;91.90;;;;;;3536080;40;20069;-80
2021/05/11 14:30:57;;;;;;;0.57;0.15;;;13.90;92.10;;;;;;3535100;40;20085;-79
2021/05/11 14:33:23;;;;;;;0.70;0.17;;;13.90;91.10;;;;;;3536244;40;20051;-81
2021/05/11 14:35:49;;;;;;;0.90;0.10;;;14.00;91.90;;;;;;3536256;40;20114;-82
2021/05/11 14:38:15;;;;;;;0.40;0.20;;;14.00;92.20;;;;;;3535796;40;20034;-82
2021/05/11 14:40:40;;;;;;;0.50;0.20;;;14.00;92.80;;;;;;3527394;40;20046;-81
2021/05/11 14:43:06;;;;;;;0.30;0.10;;;13.90;91.70;;;;;;3536105;40;20330;-81
2021/05/11 14:45:32;;;;;;;2.05;0.20;;;14.00;91.70;;;;;;3535861;40;20400;-79
2021/05/11 14:47:58;;;;;;;0.43;0.20;;;13.90;90.90;;;;;;3535953;40;20269;-80
2021/05/11 14:50:24;;;;;;;0.20;0.10;;;13.90;92.20;;;;;;3543483;40;20045;-80
2021/05/11 14:52:54;;;;;;;0.47;0.00;;;13.90;90.80;;;;;;3535042;40;20042;-80
2021/05/11 14:55:24;;;;;;;0.10;0.10;;;13.90;91.10;;;;;;3535358;40;20041;-81
2021/05/11 14:57:51;;;;;;;0.28;0.08;;;13.80;90.40;;;;;;3536292;40;20088;-81
2021/05/11 15:00:17;;;;;;;2.05;0.10;;;13.70;90.70;;;;;;3534788;40;20272;-82
2021/05/11 15:02:44;;;;;;;4.95;0.10;;;13.70;91.20;;;;;;3534458;40;20132;-80
2021/05/11 15:05:10;;;;;;;0.52;0.20;;;13.80;91.40;;;;;;3518805;40;20073;-80
2021/05/11 15:07:37;;;;;;;0.40;0.10;;;13.80;91.00;;;;;;3527156;40;20062;-80
2021/05/11 15:10:05;;;;;;;0.30;0.10;;;13.70;90.40;;;;;;3534917;40;20066;-80
2021/05/11 15:12:31;;;;;;;0.47;0.10;;;13.60;90.60;;;;;;3537417;40;20042;-80
2021/05/11 15:14:57;;;;;;;2.05;0.10;;;13.70;90.60;;;;;;3536144;40;20042;-80
2021/05/11 15:19:51;;;;;;;0.50;0.10;;;13.70;90.90;;;;;;3537596;40;20058;-80
2021/05/11 15:22:17;;;;;;;2.58;0.10;;;13.60;90.30;;;;;;3537084;40;20035;-81
2021/05/11 15:24:43;;;;;;;3.45;0.13;;;13.50;91.20;;;;;;3537301;40;20078;-79
2021/05/11 15:27:09;;;;;;;0.95;0.10;;;13.60;91.80;;;;;;3537052;40;20047;-79
2021/05/11 15:29:37;;;;;;;0.20;0.10;;;13.50;90.40;;;;;;3537464;40;20050;-80
2021/05/11 15:32:43;;;;;;;0.93;0.10;;;13.50;90.80;;;;;;3537003;40;20144;-80
2021/05/11 15:35:14;;;;;;;2.08;0.20;;;13.50;90.60;;;;;;3535835;40;20681;-80
2021/05/11 15:37:41;;;;;;;0.50;0.45;;;13.50;90.60;;;;;;3536308;40;20039;-80
2021/05/11 15:40:13;;;;;;;0.82;0.20;;;13.50;90.80;;;;;;3536325;40;20086;-79
2021/05/11 15:42:40;;;;;;;0.93;0.20;;;13.60;90.50;;;;;;3537461;40;20606;-79
2021/05/11 15:45:07;;;;;;;2.03;0.10;;;13.60;90.90;;;;;;3537032;40;20058;-80
2021/05/11 15:47:33;;;;;;;0.63;0.05;;;13.70;90.50;;;;;;3537189;40;20149;-79
2021/05/11 15:49:58;;;;;;;1.95;0.10;;;13.70;90.40;;;;;;3536315;40;20539;-80
2021/05/11 15:52:25;;;;;;;0.40;0.10;;;13.70;90.40;;;;;;3557674;23;20050;-80
2021/05/11 15:54:51;;;;;;;0.22;0.08;;;13.70;90.10;;;;;;3540454;40;20034;-79
2021/05/11 15:57:17;;;;;;;0.15;0.10;;;13.60;90.20;;;;;;3538014;40;20137;-79
2021/05/11 15:59:44;;;;;;;1.73;0.10;;;13.60;90.20;;;;;;3523165;40;20042;-80
2021/05/11 16:02:10;;;;;;;0.73;0.13;;;13.50;90.20;;;;;;3538143;40;20067;-79
2021/05/11 16:04:36;;;;;;;1.35;0.20;;;13.50;90.20;;;;;;3538129;40;20129;-79
2021/05/11 16:07:03;;;;;;;0.60;0.13;;;13.50;90.00;;;;;;3528304;40;20039;-79
2021/05/11 16:09:29;;;;;;;2.70;0.20;;;13.50;90.10;;;;;;3537694;40;20050;-80
2021/05/11 16:11:55;;;;;;;4.20;0.20;;;13.40;90.10;;;;;;3539337;40;20128;-79
2021/05/11 16:14:21;;;;;;;4.20;0.30;;;13.40;90.20;;;;;;3539537;40;20063;-79
2021/05/11 16:16:47;;;;;;;5.70;0.60;;;13.40;90.00;;;;;;3540866;40;20328;-79
2021/05/11 16:19:13;;;;;;;2.33;0.52;;;13.40;90.50;;;;;;3538330;40;20046;-80
2021/05/11 16:21:39;;;;;;;3.03;0.30;;;13.40;90.40;;;;;;3540682;40;20038;-79
2021/05/11 16:24:05;;;;;;;0.85;0.30;;;13.40;90.30;;;;;;3540914;40;20127;-79
2021/05/11 16:26:31;;;;;;;2.55;0.40;;;13.40;90.60;;;;;;3538797;40;20349;-79
2021/05/11 16:28:57;;;;;;;4.20;0.38;;;13.40;90.40;;;;;;3540326;40;20046;-79
2021/05/11 16:31:24;;;;;;;3.42;0.40;;;13.40;90.30;;;;;;3538973;40;20332;-80
2021/05/11 16:33:50;;;;;;;1.50;0.30;;;13.30;90.30;;;;;;3540165;40;20061;-79
2021/05/11 16:36:16;;;;;;;6.22;0.52;;;13.30;90.80;;;;;;3536993;40;20047;-80
2021/05/11 16:38:42;;;;;;;0.22;0.20;;;13.20;90.30;;;;;;3526848;40;20038;-80
2021/05/11 16:41:09;;;;;;;5.18;0.90;;;13.20;90.60;;;;;;3528188;40;20074;-79
2021/05/11 16:43:35;;;;;;;2.58;0.45;;;13.10;91.10;;;;;;3537162;40;20042;-80
2021/05/11 16:46:03;;;;;;;3.90;0.38;;;13.10;91.20;;;;;;3542262;40;20053;-79
2021/05/11 16:48:30;;;;;;;1.67;0.50;;;13.10;90.50;;;;;;3539192;40;20042;-79
2021/05/11 16:50:56;;;;;;;4.25;0.30;;;13.00;90.80;;;;;;3531811;40;20050;-79
2021/05/11 16:53:22;;;;;;;2.83;0.35;;;13.00;90.50;;;;;;3538145;40;20034;-79
2021/05/11 16:55:48;;;;;;;2.25;0.35;;;12.90;90.70;;;;;;3539776;40;20047;-79
2021/05/11 16:58:14;;;;;;;1.67;0.45;;;12.90;90.70;;;;;;3537647;40;20041;-79
2021/05/11 17:00:41;;;;;;;1.27;0.40;;;12.90;91.50;;;;;;3537143;40;20347;-79
2021/05/11 17:03:07;;;;;;;2.45;0.50;;;12.80;90.70;;;;;;3536601;40;20226;-79
2021/05/11 17:05:34;;;;;;;1.35;0.47;;;12.80;91.40;;;;;;3537255;40;20049;-80
2021/05/11 17:08:02;;;;;;;3.67;0.57;;;12.80;91.00;;;;;;3539047;40;20322;-79
2021/05/11 17:10:31;;;;;;;3.60;0.90;;;12.70;90.90;;;;;;3539932;40;20054;-79
2021/05/11 17:12:59;;;;;;;2.17;0.47;;;12.70;91.10;;;;;;3539804;40;20054;-80
2021/05/11 17:15:26;;;;;;;1.85;0.60;;;12.60;90.90;;;;;;3538831;40;20034;-80
2021/05/11 17:17:52;;;;;;;3.20;0.68;;;12.60;91.40;;;;;;3539600;40;20052;-80
2021/05/11 17:20:27;;;;;;;1.42;0.60;;;12.50;91.40;;;;;;3538786;40;20065;-80
2021/05/11 17:22:57;;;;;;;3.30;0.30;;;12.50;91.50;;;;;;3538220;40;20136;-80
2021/05/11 17:25:23;;;;;;;2.50;0.40;;;12.50;92.00;;;;;;3541053;40;20042;-80
2021/05/11 17:27:52;;;;;;;1.52;0.30;;;12.50;92.10;;;;;;3538368;40;20079;-80
2021/05/11 17:30:19;;;;;;;2.92;0.45;;;12.40;91.10;;;;;;3539043;40;20039;-80
2021/05/11 17:32:47;;;;;;;3.42;0.47;;;12.40;92.00;;;;;;3537362;40;20042;-80